sensor_id;sensor_type;location;lat;lon;timestamp;temperature;humidity
31819;DHT22;18384;48.860;9.188;2022-11-20T00:01:27;7.90;99.90
31819;DHT22;18384;48.860;9.188;2022-11-20T00:03:55;8.00;99.90
31819;DHT22;18384;48.860;9.188;2022-11-20T00:06:24;8.00;99.90
31819;DHT22;18384;48.860;9.188;2022-11-20T00:08:51;8.00;99.90
31819;DHT22;18384;48.860;9.188;2022-11-20T00:11:21;8.10;99.90
31819;DHT22;18384;48.860;9.188;2022-11-20T00:13:51;8.00;99.90
31819;DHT22;18384;48.860;9.188;2022-11-20T00:16:20;9.50;99.90
31819;DHT22;18384;48.860;9.188;2022-11-20T00:18:48;8.00;99.90
31819;DHT22;18384;48.860;9.188;2022-11-20T00:21:15;7.90;99.90
31819;DHT22;18384;48.860;9.188;2022-11-20T00:23:43;7.90;99.90
31819;DHT22;18384;48.860;9.188;2022-11-20T00:26:13;7.90;99.90
31819;DHT22;18384;48.860;9.188;2022-11-20T00:28:41;7.90;99.90
31819;DHT22;18384;48.860;9.188;2022-11-20T00:31:10;7.90;99.90
31819;DHT22;18384;48.860;9.188;2022-11-20T00:33:37;8.00;99.90
31819;DHT22;18384;48.860;9.188;2022-11-20T00:36:09;8.00;99.90
31819;DHT22;18384;48.860;9.188;2022-11-20T00:38:37;8.10;99.90
31819;DHT22;18384;48.860;9.188;2022-11-20T00:41:04;8.10;99.90
31819;DHT22;18384;48.860;9.188;2022-11-20T00:43:33;8.20;99.90
31819;DHT22;18384;48.860;9.188;2022-11-20T00:46:01;8.20;99.90
31819;DHT22;18384;48.860;9.188;2022-11-20T00:48:29;8.10;99.90
31819;DHT22;18384;48.860;9.188;2022-11-20T00:50:56;8.20;99.90
31819;DHT22;18384;48.860;9.188;2022-11-20T00:53:22;8.10;99.90
31819;DHT22;18384;48.860;9.188;2022-11-20T00:56:01;8.20;99.90
31819;DHT22;18384;48.860;9.188;2022-11-20T00:58:31;8.20;99.90
31819;DHT22;18384;48.860;9.188;2022-11-20T01:01:03;8.20;99.90
31819;DHT22;18384;48.860;9.188;2022-11-20T01:03:35;8.30;99.90
31819;DHT22;18384;48.860;9.188;2022-11-20T01:06:09;8.20;99.90
31819;DHT22;18384;48.860;9.188;2022-11-20T01:08:37;8.10;99.90
31819;DHT22;18384;48.860;9.188;2022-11-20T01:11:09;8.10;99.90
31819;DHT22;18384;48.860;9.188;2022-11-20T01:13:36;8.10;99.90
31819;DHT22;18384;48.860;9.188;2022-11-20T01:16:30;8.10;99.90
31819;DHT22;18384;48.860;9.188;2022-11-20T01:19:03;8.10;99.90
31819;DHT22;18384;48.860;9.188;2022-11-20T01:21:36;8.10;99.90
31819;DHT22;18384;48.860;9.188;2022-11-20T01:24:05;8.10;99.90
31819;DHT22;18384;48.860;9.188;2022-11-20T01:26:36;8.10;99.90
31819;DHT22;18384;48.860;9.188;2022-11-20T01:29:04;8.10;99.90
31819;DHT22;18384;48.860;9.188;2022-11-20T01:31:33;8.10;99.90
31819;DHT22;18384;48.860;9.188;2022-11-20T01:34:06;8.10;99.90
31819;DHT22;18384;48.860;9.188;2022-11-20T01:36:36;8.10;99.90
31819;DHT22;18384;48.860;9.188;2022-11-20T01:39:06;8.00;99.90
31819;DHT22;18384;48.860;9.188;2022-11-20T01:41:36;8.10;99.90
31819;DHT22;18384;48.860;9.188;2022-11-20T01:44:42;8.10;99.90
31819;DHT22;18384;48.860;9.188;2022-11-20T01:47:44;8.10;99.90
31819;DHT22;18384;48.860;9.188;2022-11-20T01:50:22;8.10;99.90
31819;DHT22;18384;48.860;9.188;2022-11-20T01:53:09;8.10;99.90
31819;DHT22;18384;48.860;9.188;2022-11-20T01:55:48;8.00;99.90
31819;DHT22;18384;48.860;9.188;2022-11-20T01:58:18;8.00;99.90
31819;DHT22;18384;48.860;9.188;2022-11-20T02:00:48;8.00;99.90
31819;DHT22;18384;48.860;9.188;2022-11-20T02:03:16;8.00;99.90
31819;DHT22;18384;48.860;9.188;2022-11-20T02:06:35;8.00;99.90
31819;DHT22;18384;48.860;9.188;2022-11-20T02:09:06;8.00;99.90
31819;DHT22;18384;48.860;9.188;2022-11-20T02:11:32;8.00;99.90
31819;DHT22;18384;48.860;9.188;2022-11-20T02:13:59;8.00;99.90
31819;DHT22;18384;48.860;9.188;2022-11-20T02:16:27;8.00;99.90
31819;DHT22;18384;48.860;9.188;2022-11-20T02:18:58;8.00;99.90
31819;DHT22;18384;48.860;9.188;2022-11-20T02:22:19;8.00;99.90
31819;DHT22;18384;48.860;9.188;2022-11-20T02:24:54;8.00;99.90
31819;DHT22;18384;48.860;9.188;2022-11-20T02:27:26;8.10;99.90
31819;DHT22;18384;48.860;9.188;2022-11-20T02:29:53;8.00;99.90
31819;DHT22;18384;48.860;9.188;2022-11-20T02:32:31;8.00;99.90
31819;DHT22;18384;48.860;9.188;2022-11-20T02:36:00;8.00;99.90
31819;DHT22;18384;48.860;9.188;2022-11-20T02:38:26;8.00;99.90
31819;DHT22;18384;48.860;9.188;2022-11-20T02:40:53;8.00;99.90
31819;DHT22;18384;48.860;9.188;2022-11-20T02:43:19;7.90;99.90
31819;DHT22;18384;48.860;9.188;2022-11-20T02:45:45;7.90;99.90
31819;DHT22;18384;48.860;9.188;2022-11-20T02:48:11;7.90;99.90
31819;DHT22;18384;48.860;9.188;2022-11-20T02:50:38;7.70;99.90
31819;DHT22;18384;48.860;9.188;2022-11-20T02:53:06;7.90;99.90
31819;DHT22;18384;48.860;9.188;2022-11-20T02:55:32;7.90;99.90
31819;DHT22;18384;48.860;9.188;2022-11-20T02:57:58;7.90;99.90
31819;DHT22;18384;48.860;9.188;2022-11-20T03:00:24;7.90;99.90
31819;DHT22;18384;48.860;9.188;2022-11-20T03:02:50;8.00;99.90
31819;DHT22;18384;48.860;9.188;2022-11-20T03:05:16;7.90;99.90
31819;DHT22;18384;48.860;9.188;2022-11-20T03:07:43;7.90;99.90
31819;DHT22;18384;48.860;9.188;2022-11-20T03:10:09;8.00;99.90
31819;DHT22;18384;48.860;9.188;2022-11-20T03:12:35;8.00;99.90
31819;DHT22;18384;48.860;9.188;2022-11-20T03:15:02;8.00;99.90
31819;DHT22;18384;48.860;9.188;2022-11-20T03:17:28;7.90;99.90
31819;DHT22;18384;48.860;9.188;2022-11-20T03:19:56;7.90;99.90
31819;DHT22;18384;48.860;9.188;2022-11-20T03:22:22;8.00;99.90
31819;DHT22;18384;48.860;9.188;2022-11-20T03:24:48;7.90;99.90
31819;DHT22;18384;48.860;9.188;2022-11-20T03:27:14;8.00;99.90
31819;DHT22;18384;48.860;9.188;2022-11-20T03:29:40;8.00;99.90
31819;DHT22;18384;48.860;9.188;2022-11-20T03:32:06;7.90;99.90
31819;DHT22;18384;48.860;9.188;2022-11-20T03:34:33;8.00;99.90
31819;DHT22;18384;48.860;9.188;2022-11-20T03:36:59;8.00;99.90
31819;DHT22;18384;48.860;9.188;2022-11-20T03:39:25;8.00;99.90
31819;DHT22;18384;48.860;9.188;2022-11-20T03:41:52;8.00;99.90
31819;DHT22;18384;48.860;9.188;2022-11-20T03:44:21;7.90;99.90
31819;DHT22;18384;48.860;9.188;2022-11-20T03:46:47;7.80;99.90
31819;DHT22;18384;48.860;9.188;2022-11-20T03:49:13;7.70;99.90
31819;DHT22;18384;48.860;9.188;2022-11-20T03:51:39;7.70;99.90
31819;DHT22;18384;48.860;9.188;2022-11-20T03:54:07;7.70;99.90
31819;DHT22;18384;48.860;9.188;2022-11-20T03:56:36;7.70;99.90
31819;DHT22;18384;48.860;9.188;2022-11-20T03:59:04;7.70;99.90
31819;DHT22;18384;48.860;9.188;2022-11-20T04:01:33;7.70;99.90
31819;DHT22;18384;48.860;9.188;2022-11-20T04:04:01;7.70;99.90
31819;DHT22;18384;48.860;9.188;2022-11-20T04:06:34;7.70;99.90
31819;DHT22;18384;48.860;9.188;2022-11-20T04:09:01;7.70;99.90
31819;DHT22;18384;48.860;9.188;2022-11-20T04:11:30;7.70;99.90
31819;DHT22;18384;48.860;9.188;2022-11-20T04:14:00;7.70;99.90
31819;DHT22;18384;48.860;9.188;2022-11-20T04:16:30;7.70;99.90
31819;DHT22;18384;48.860;9.188;2022-11-20T04:19:01;7.80;99.90
31819;DHT22;18384;48.860;9.188;2022-11-20T04:21:29;7.90;99.90
31819;DHT22;18384;48.860;9.188;2022-11-20T04:23:55;7.90;99.90
31819;DHT22;18384;48.860;9.188;2022-11-20T04:26:22;9.30;99.90
31819;DHT22;18384;48.860;9.188;2022-11-20T04:28:49;7.90;99.90
31819;DHT22;18384;48.860;9.188;2022-11-20T04:31:18;7.90;99.90
31819;DHT22;18384;48.860;9.188;2022-11-20T04:33:52;7.90;99.90
31819;DHT22;18384;48.860;9.188;2022-11-20T04:36:19;7.90;99.90
31819;DHT22;18384;48.860;9.188;2022-11-20T04:38:49;7.80;99.90
31819;DHT22;18384;48.860;9.188;2022-11-20T04:41:19;7.90;99.90
31819;DHT22;18384;48.860;9.188;2022-11-20T04:43:47;7.90;99.90
31819;DHT22;18384;48.860;9.188;2022-11-20T04:46:15;7.90;99.90
31819;DHT22;18384;48.860;9.188;2022-11-20T04:48:42;7.60;99.90
31819;DHT22;18384;48.860;9.188;2022-11-20T04:51:08;7.80;99.90
31819;DHT22;18384;48.860;9.188;2022-11-20T04:53:34;7.80;99.90
31819;DHT22;18384;48.860;9.188;2022-11-20T04:56:01;7.90;99.90
31819;DHT22;18384;48.860;9.188;2022-11-20T04:58:28;7.90;99.90
31819;DHT22;18384;48.860;9.188;2022-11-20T05:01:06;7.90;99.90
31819;DHT22;18384;48.860;9.188;2022-11-20T05:03:34;8.00;99.90
31819;DHT22;18384;48.860;9.188;2022-11-20T05:06:04;7.90;99.90
31819;DHT22;18384;48.860;9.188;2022-11-20T05:08:32;7.80;99.90
31819;DHT22;18384;48.860;9.188;2022-11-20T05:11:07;7.80;99.90
31819;DHT22;18384;48.860;9.188;2022-11-20T05:13:38;7.90;99.90
31819;DHT22;18384;48.860;9.188;2022-11-20T05:16:06;7.90;99.90
31819;DHT22;18384;48.860;9.188;2022-11-20T05:18:35;7.90;99.90
31819;DHT22;18384;48.860;9.188;2022-11-20T05:21:01;8.00;99.90
31819;DHT22;18384;48.860;9.188;2022-11-20T05:23:29;8.00;99.90
31819;DHT22;18384;48.860;9.188;2022-11-20T05:25:57;8.00;99.90
31819;DHT22;18384;48.860;9.188;2022-11-20T05:28:24;8.10;99.90
31819;DHT22;18384;48.860;9.188;2022-11-20T05:30:51;8.10;99.90
31819;DHT22;18384;48.860;9.188;2022-11-20T05:33:17;8.10;99.90
31819;DHT22;18384;48.860;9.188;2022-11-20T05:35:45;8.10;99.90
31819;DHT22;18384;48.860;9.188;2022-11-20T05:38:11;8.10;99.90
31819;DHT22;18384;48.860;9.188;2022-11-20T05:40:37;8.10;99.90
31819;DHT22;18384;48.860;9.188;2022-11-20T05:43:03;8.10;99.90
31819;DHT22;18384;48.860;9.188;2022-11-20T05:45:29;8.10;99.90
31819;DHT22;18384;48.860;9.188;2022-11-20T05:47:59;8.10;99.90
31819;DHT22;18384;48.860;9.188;2022-11-20T05:50:27;8.10;99.90
31819;DHT22;18384;48.860;9.188;2022-11-20T05:52:53;8.20;99.90
31819;DHT22;18384;48.860;9.188;2022-11-20T05:55:19;8.20;99.90
31819;DHT22;18384;48.860;9.188;2022-11-20T05:57:45;8.20;99.90
31819;DHT22;18384;48.860;9.188;2022-11-20T06:00:12;8.20;99.90
31819;DHT22;18384;48.860;9.188;2022-11-20T06:02:39;8.10;99.90
31819;DHT22;18384;48.860;9.188;2022-11-20T06:05:05;8.10;99.90
31819;DHT22;18384;48.860;9.188;2022-11-20T06:07:32;8.10;99.90
31819;DHT22;18384;48.860;9.188;2022-11-20T06:09:58;8.00;99.90
31819;DHT22;18384;48.860;9.188;2022-11-20T06:12:24;8.10;99.90
31819;DHT22;18384;48.860;9.188;2022-11-20T06:14:50;7.90;99.90
31819;DHT22;18384;48.860;9.188;2022-11-20T06:17:16;7.90;99.90
31819;DHT22;18384;48.860;9.188;2022-11-20T06:19:42;8.00;99.90
31819;DHT22;18384;48.860;9.188;2022-11-20T06:22:08;8.00;99.90
31819;DHT22;18384;48.860;9.188;2022-11-20T06:24:34;7.90;99.90
31819;DHT22;18384;48.860;9.188;2022-11-20T06:27:01;7.90;99.90
31819;DHT22;18384;48.860;9.188;2022-11-20T06:29:27;7.90;99.90
31819;DHT22;18384;48.860;9.188;2022-11-20T06:31:54;8.00;99.90
31819;DHT22;18384;48.860;9.188;2022-11-20T06:34:20;8.00;99.90
31819;DHT22;18384;48.860;9.188;2022-11-20T06:36:46;8.00;99.90
31819;DHT22;18384;48.860;9.188;2022-11-20T06:39:12;8.00;99.90
31819;DHT22;18384;48.860;9.188;2022-11-20T06:41:38;8.10;99.90
31819;DHT22;18384;48.860;9.188;2022-11-20T06:44:05;8.10;99.90
31819;DHT22;18384;48.860;9.188;2022-11-20T06:46:31;8.10;99.90
31819;DHT22;18384;48.860;9.188;2022-11-20T06:48:57;8.10;99.90
31819;DHT22;18384;48.860;9.188;2022-11-20T06:51:23;8.30;99.90
31819;DHT22;18384;48.860;9.188;2022-11-20T06:53:49;8.20;99.90
31819;DHT22;18384;48.860;9.188;2022-11-20T06:56:15;8.20;99.90
31819;DHT22;18384;48.860;9.188;2022-11-20T06:58:42;8.30;99.90
31819;DHT22;18384;48.860;9.188;2022-11-20T07:01:12;8.10;99.90
31819;DHT22;18384;48.860;9.188;2022-11-20T07:03:40;8.00;99.90
31819;DHT22;18384;48.860;9.188;2022-11-20T07:06:07;8.10;99.90
31819;DHT22;18384;48.860;9.188;2022-11-20T07:08:34;8.00;99.90
31819;DHT22;18384;48.860;9.188;2022-11-20T07:11:02;7.90;99.90
31819;DHT22;18384;48.860;9.188;2022-11-20T07:13:30;7.80;99.90
31819;DHT22;18384;48.860;9.188;2022-11-20T07:16:03;7.80;99.90
31819;DHT22;18384;48.860;9.188;2022-11-20T07:18:31;7.80;99.90
31819;DHT22;18384;48.860;9.188;2022-11-20T07:21:03;7.90;99.90
31819;DHT22;18384;48.860;9.188;2022-11-20T07:23:31;7.90;99.90
31819;DHT22;18384;48.860;9.188;2022-11-20T07:25:57;7.90;99.90
31819;DHT22;18384;48.860;9.188;2022-11-20T07:28:23;7.90;99.90
31819;DHT22;18384;48.860;9.188;2022-11-20T07:30:53;7.90;99.90
31819;DHT22;18384;48.860;9.188;2022-11-20T07:33:19;7.90;99.90
31819;DHT22;18384;48.860;9.188;2022-11-20T07:35:45;7.90;99.90
31819;DHT22;18384;48.860;9.188;2022-11-20T07:38:11;8.00;99.90
31819;DHT22;18384;48.860;9.188;2022-11-20T07:40:37;8.10;99.90
31819;DHT22;18384;48.860;9.188;2022-11-20T07:43:03;8.20;99.90
31819;DHT22;18384;48.860;9.188;2022-11-20T07:45:30;8.20;99.90
31819;DHT22;18384;48.860;9.188;2022-11-20T07:47:56;8.30;99.90
31819;DHT22;18384;48.860;9.188;2022-11-20T07:50:22;8.30;99.90
31819;DHT22;18384;48.860;9.188;2022-11-20T07:52:48;8.30;99.90
31819;DHT22;18384;48.860;9.188;2022-11-20T07:55:14;8.40;99.90
31819;DHT22;18384;48.860;9.188;2022-11-20T07:57:40;8.40;99.90
31819;DHT22;18384;48.860;9.188;2022-11-20T08:00:09;8.30;99.90
31819;DHT22;18384;48.860;9.188;2022-11-20T08:02:37;8.40;99.90
31819;DHT22;18384;48.860;9.188;2022-11-20T08:05:08;8.40;99.90
31819;DHT22;18384;48.860;9.188;2022-11-20T08:07:44;8.40;99.90
31819;DHT22;18384;48.860;9.188;2022-11-20T08:10:15;8.30;99.90
31819;DHT22;18384;48.860;9.188;2022-11-20T08:12:52;8.30;99.90
31819;DHT22;18384;48.860;9.188;2022-11-20T08:15:39;8.30;99.90
31819;DHT22;18384;48.860;9.188;2022-11-20T08:18:10;8.30;99.90
31819;DHT22;18384;48.860;9.188;2022-11-20T08:20:37;8.30;99.90
31819;DHT22;18384;48.860;9.188;2022-11-20T08:23:05;8.20;99.90
31819;DHT22;18384;48.860;9.188;2022-11-20T08:25:33;8.40;99.90
31819;DHT22;18384;48.860;9.188;2022-11-20T08:28:02;8.50;99.90
31819;DHT22;18384;48.860;9.188;2022-11-20T08:30:38;8.60;99.90
31819;DHT22;18384;48.860;9.188;2022-11-20T08:33:09;8.70;99.90
31819;DHT22;18384;48.860;9.188;2022-11-20T08:35:36;8.80;99.90
31819;DHT22;18384;48.860;9.188;2022-11-20T08:38:04;8.80;99.90
31819;DHT22;18384;48.860;9.188;2022-11-20T08:40:31;8.90;99.90
31819;DHT22;18384;48.860;9.188;2022-11-20T08:42:59;9.00;99.90
31819;DHT22;18384;48.860;9.188;2022-11-20T08:45:26;9.00;99.90
31819;DHT22;18384;48.860;9.188;2022-11-20T08:47:53;9.00;99.90
31819;DHT22;18384;48.860;9.188;2022-11-20T08:50:19;8.90;99.90
31819;DHT22;18384;48.860;9.188;2022-11-20T08:52:46;9.00;99.90
31819;DHT22;18384;48.860;9.188;2022-11-20T08:55:17;9.00;99.90
31819;DHT22;18384;48.860;9.188;2022-11-20T08:57:46;8.90;99.90
31819;DHT22;18384;48.860;9.188;2022-11-20T09:00:14;8.90;99.90
31819;DHT22;18384;48.860;9.188;2022-11-20T09:02:41;10.40;99.90
31819;DHT22;18384;48.860;9.188;2022-11-20T09:05:07;8.90;99.90
31819;DHT22;18384;48.860;9.188;2022-11-20T09:07:33;8.90;99.90
31819;DHT22;18384;48.860;9.188;2022-11-20T09:09:59;8.90;99.90
31819;DHT22;18384;48.860;9.188;2022-11-20T09:12:26;8.90;99.90
31819;DHT22;18384;48.860;9.188;2022-11-20T09:14:52;8.90;99.90
31819;DHT22;18384;48.860;9.188;2022-11-20T09:17:18;9.10;99.90
31819;DHT22;18384;48.860;9.188;2022-11-20T09:19:45;8.90;99.90
31819;DHT22;18384;48.860;9.188;2022-11-20T09:22:12;9.00;99.90
31819;DHT22;18384;48.860;9.188;2022-11-20T09:24:38;9.00;99.90
31819;DHT22;18384;48.860;9.188;2022-11-20T09:27:05;9.00;99.90
31819;DHT22;18384;48.860;9.188;2022-11-20T09:29:31;9.00;99.90
31819;DHT22;18384;48.860;9.188;2022-11-20T09:31:57;9.00;99.90
31819;DHT22;18384;48.860;9.188;2022-11-20T09:34:24;9.00;99.90
31819;DHT22;18384;48.860;9.188;2022-11-20T09:36:50;9.00;99.90
31819;DHT22;18384;48.860;9.188;2022-11-20T09:39:16;9.00;99.90
31819;DHT22;18384;48.860;9.188;2022-11-20T09:42:56;8.90;99.90
31819;DHT22;18384;48.860;9.188;2022-11-20T09:54:40;9.00;99.90
31819;DHT22;18384;48.860;9.188;2022-11-20T09:57:10;8.90;99.90
31819;DHT22;18384;48.860;9.188;2022-11-20T09:59:41;9.00;99.90
31819;DHT22;18384;48.860;9.188;2022-11-20T10:02:28;8.90;99.90
31819;DHT22;18384;48.860;9.188;2022-11-20T10:05:17;8.90;99.90
31819;DHT22;18384;48.860;9.188;2022-11-20T10:09:29;8.90;99.90
31819;DHT22;18384;48.860;9.188;2022-11-20T10:12:23;8.80;99.90
31819;DHT22;18384;48.860;9.188;2022-11-20T10:15:27;8.90;99.90
31819;DHT22;18384;48.860;9.188;2022-11-20T10:30:31;9.00;99.90
31819;DHT22;18384;48.860;9.188;2022-11-20T10:34:06;8.90;99.90
31819;DHT22;18384;48.860;9.188;2022-11-20T10:37:24;8.90;99.90
31819;DHT22;18384;48.860;9.188;2022-11-20T10:40:44;8.90;99.90
31819;DHT22;18384;48.860;9.188;2022-11-20T10:43:17;8.90;99.90
31819;DHT22;18384;48.860;9.188;2022-11-20T10:45:57;8.90;99.90
31819;DHT22;18384;48.860;9.188;2022-11-20T10:48:31;8.80;99.90
31819;DHT22;18384;48.860;9.188;2022-11-20T10:51:21;8.80;99.90
31819;DHT22;18384;48.860;9.188;2022-11-20T10:54:30;8.80;99.90
31819;DHT22;18384;48.860;9.188;2022-11-20T10:58:00;8.60;99.90
31819;DHT22;18384;48.860;9.188;2022-11-20T11:00:36;8.70;99.90
31819;DHT22;18384;48.860;9.188;2022-11-20T11:03:25;8.70;99.90
31819;DHT22;18384;48.860;9.188;2022-11-20T11:08:57;8.80;99.90
31819;DHT22;18384;48.860;9.188;2022-11-20T11:11:30;8.90;99.90
31819;DHT22;18384;48.860;9.188;2022-11-20T11:14:11;8.90;99.90
31819;DHT22;18384;48.860;9.188;2022-11-20T11:16:56;8.90;99.90
31819;DHT22;18384;48.860;9.188;2022-11-20T11:19:26;9.00;99.90
31819;DHT22;18384;48.860;9.188;2022-11-20T11:21:56;8.60;99.90
31819;DHT22;18384;48.860;9.188;2022-11-20T11:24:25;9.50;99.90
31819;DHT22;18384;48.860;9.188;2022-11-20T11:27:00;9.10;99.90
31819;DHT22;18384;48.860;9.188;2022-11-20T11:29:33;9.30;99.90
31819;DHT22;18384;48.860;9.188;2022-11-20T11:32:18;9.40;99.90
31819;DHT22;18384;48.860;9.188;2022-11-20T11:35:01;9.40;99.90
31819;DHT22;18384;48.860;9.188;2022-11-20T11:37:37;9.50;99.90
31819;DHT22;18384;48.860;9.188;2022-11-20T11:40:05;9.60;99.90
31819;DHT22;18384;48.860;9.188;2022-11-20T11:42:46;9.60;99.90
31819;DHT22;18384;48.860;9.188;2022-11-20T11:45:22;9.70;99.90
31819;DHT22;18384;48.860;9.188;2022-11-20T11:47:51;10.00;99.90
31819;DHT22;18384;48.860;9.188;2022-11-20T11:50:20;9.80;99.90
31819;DHT22;18384;48.860;9.188;2022-11-20T11:53:14;9.90;99.90
31819;DHT22;18384;48.860;9.188;2022-11-20T11:55:56;10.00;99.90
31819;DHT22;18384;48.860;9.188;2022-11-20T11:59:26;10.10;99.90
31819;DHT22;18384;48.860;9.188;2022-11-20T12:01:59;10.00;99.90
31819;DHT22;18384;48.860;9.188;2022-11-20T12:04:49;10.00;99.90
31819;DHT22;18384;48.860;9.188;2022-11-20T12:07:45;10.10;99.90
31819;DHT22;18384;48.860;9.188;2022-11-20T12:10:43;10.20;99.90
31819;DHT22;18384;48.860;9.188;2022-11-20T12:14:08;10.30;99.90
31819;DHT22;18384;48.860;9.188;2022-11-20T12:16:40;10.30;99.90
31819;DHT22;18384;48.860;9.188;2022-11-20T12:19:12;10.30;99.90
31819;DHT22;18384;48.860;9.188;2022-11-20T12:22:03;10.30;99.90
31819;DHT22;18384;48.860;9.188;2022-11-20T12:25:55;10.30;99.90
31819;DHT22;18384;48.860;9.188;2022-11-20T12:28:34;10.20;99.90
31819;DHT22;18384;48.860;9.188;2022-11-20T12:49:56;10.10;99.90
31819;DHT22;18384;48.860;9.188;2022-11-20T12:53:03;9.90;99.90
31819;DHT22;18384;48.860;9.188;2022-11-20T12:55:53;9.90;99.60
31819;DHT22;18384;48.860;9.188;2022-11-20T13:02:14;9.90;99.10
31819;DHT22;18384;48.860;9.188;2022-11-20T13:08:56;9.70;98.50
31819;DHT22;18384;48.860;9.188;2022-11-20T13:12:25;9.70;99.10
31819;DHT22;18384;48.860;9.188;2022-11-20T13:15:32;9.70;99.90
31819;DHT22;18384;48.860;9.188;2022-11-20T13:18:10;9.70;99.90
31819;DHT22;18384;48.860;9.188;2022-11-20T13:20:42;9.70;99.90
31819;DHT22;18384;48.860;9.188;2022-11-20T13:23:09;9.70;99.70
31819;DHT22;18384;48.860;9.188;2022-11-20T13:25:40;9.70;99.90
31819;DHT22;18384;48.860;9.188;2022-11-20T13:33:38;9.60;99.70
31819;DHT22;18384;48.860;9.188;2022-11-20T13:36:07;9.60;99.50
31819;DHT22;18384;48.860;9.188;2022-11-20T13:38:51;9.70;99.30
31819;DHT22;18384;48.860;9.188;2022-11-20T13:41:32;9.80;98.90
31819;DHT22;18384;48.860;9.188;2022-11-20T13:44:25;9.80;98.90
31819;DHT22;18384;48.860;9.188;2022-11-20T13:47:27;9.80;99.10
31819;DHT22;18384;48.860;9.188;2022-11-20T13:49:55;9.90;98.40
31819;DHT22;18384;48.860;9.188;2022-11-20T14:01:28;9.70;98.90
31819;DHT22;18384;48.860;9.188;2022-11-20T14:03:57;9.60;98.20
31819;DHT22;18384;48.860;9.188;2022-11-20T14:06:31;9.60;98.70
31819;DHT22;18384;48.860;9.188;2022-11-20T14:08:59;9.60;98.60
31819;DHT22;18384;48.860;9.188;2022-11-20T14:11:30;9.70;98.80
31819;DHT22;18384;48.860;9.188;2022-11-20T14:14:13;9.70;98.80
31819;DHT22;18384;48.860;9.188;2022-11-20T14:16:41;9.70;99.00
31819;DHT22;18384;48.860;9.188;2022-11-20T14:21:01;9.70;99.40
31819;DHT22;18384;48.860;9.188;2022-11-20T14:23:29;9.70;99.20
31819;DHT22;18384;48.860;9.188;2022-11-20T14:25:55;9.70;99.60
31819;DHT22;18384;48.860;9.188;2022-11-20T14:28:29;9.60;99.70
31819;DHT22;18384;48.860;9.188;2022-11-20T14:30:57;9.60;99.90
31819;DHT22;18384;48.860;9.188;2022-11-20T14:33:25;9.50;99.90
31819;DHT22;18384;48.860;9.188;2022-11-20T14:35:57;9.50;99.90
31819;DHT22;18384;48.860;9.188;2022-11-20T14:38:28;9.50;99.90
31819;DHT22;18384;48.860;9.188;2022-11-20T14:41:08;9.50;99.90
31819;DHT22;18384;48.860;9.188;2022-11-20T14:43:54;9.40;99.90
31819;DHT22;18384;48.860;9.188;2022-11-20T14:46:23;9.40;99.90
31819;DHT22;18384;48.860;9.188;2022-11-20T14:48:51;9.30;99.90
31819;DHT22;18384;48.860;9.188;2022-11-20T14:51:33;9.30;99.90
31819;DHT22;18384;48.860;9.188;2022-11-20T14:54:19;9.20;99.90
31819;DHT22;18384;48.860;9.188;2022-11-20T14:57:00;9.10;99.90
31819;DHT22;18384;48.860;9.188;2022-11-20T14:59:32;9.10;99.90
31819;DHT22;18384;48.860;9.188;2022-11-20T15:02:05;8.90;99.90
31819;DHT22;18384;48.860;9.188;2022-11-20T15:04:48;8.90;99.90
31819;DHT22;18384;48.860;9.188;2022-11-20T15:07:26;8.90;99.90
31819;DHT22;18384;48.860;9.188;2022-11-20T15:10:08;8.90;99.90
31819;DHT22;18384;48.860;9.188;2022-11-20T15:12:46;8.90;99.90
31819;DHT22;18384;48.860;9.188;2022-11-20T15:15:41;8.90;99.90
31819;DHT22;18384;48.860;9.188;2022-11-20T15:18:20;8.80;99.90
31819;DHT22;18384;48.860;9.188;2022-11-20T15:20:49;8.80;99.90
31819;DHT22;18384;48.860;9.188;2022-11-20T15:23:18;8.80;99.90
31819;DHT22;18384;48.860;9.188;2022-11-20T15:25:45;8.80;99.90
31819;DHT22;18384;48.860;9.188;2022-11-20T15:28:39;8.80;99.90
31819;DHT22;18384;48.860;9.188;2022-11-20T15:31:09;8.80;99.90
31819;DHT22;18384;48.860;9.188;2022-11-20T15:33:38;8.80;99.90
31819;DHT22;18384;48.860;9.188;2022-11-20T15:36:04;8.60;99.90
31819;DHT22;18384;48.860;9.188;2022-11-20T15:38:31;8.50;99.90
31819;DHT22;18384;48.860;9.188;2022-11-20T15:40:57;8.40;99.90
31819;DHT22;18384;48.860;9.188;2022-11-20T15:43:23;8.50;99.90
31819;DHT22;18384;48.860;9.188;2022-11-20T15:45:53;8.50;99.90
31819;DHT22;18384;48.860;9.188;2022-11-20T15:48:24;8.40;99.90
31819;DHT22;18384;48.860;9.188;2022-11-20T15:51:41;8.50;99.90
31819;DHT22;18384;48.860;9.188;2022-11-20T15:54:15;8.50;99.90
31819;DHT22;18384;48.860;9.188;2022-11-20T15:56:49;8.60;99.90
31819;DHT22;18384;48.860;9.188;2022-11-20T15:59:17;8.60;99.90
31819;DHT22;18384;48.860;9.188;2022-11-20T16:01:43;8.60;99.90
31819;DHT22;18384;48.860;9.188;2022-11-20T16:04:15;8.60;99.90
31819;DHT22;18384;48.860;9.188;2022-11-20T16:06:42;8.60;99.90
31819;DHT22;18384;48.860;9.188;2022-11-20T16:09:08;8.50;99.90
31819;DHT22;18384;48.860;9.188;2022-11-20T16:11:35;8.60;99.90
31819;DHT22;18384;48.860;9.188;2022-11-20T16:14:05;8.50;99.90
31819;DHT22;18384;48.860;9.188;2022-11-20T16:16:50;8.50;99.90
31819;DHT22;18384;48.860;9.188;2022-11-20T16:19:16;8.50;99.90
31819;DHT22;18384;48.860;9.188;2022-11-20T16:21:44;8.50;99.90
31819;DHT22;18384;48.860;9.188;2022-11-20T16:24:12;8.50;99.90
31819;DHT22;18384;48.860;9.188;2022-11-20T16:26:39;8.50;99.90
31819;DHT22;18384;48.860;9.188;2022-11-20T16:29:06;8.40;99.90
31819;DHT22;18384;48.860;9.188;2022-11-20T16:31:33;8.50;99.90
31819;DHT22;18384;48.860;9.188;2022-11-20T16:34:02;8.50;99.90
31819;DHT22;18384;48.860;9.188;2022-11-20T16:36:29;8.50;99.90
31819;DHT22;18384;48.860;9.188;2022-11-20T16:39:01;8.50;99.90
31819;DHT22;18384;48.860;9.188;2022-11-20T16:41:31;8.50;99.90
31819;DHT22;18384;48.860;9.188;2022-11-20T16:44:00;8.50;99.90
31819;DHT22;18384;48.860;9.188;2022-11-20T16:46:29;8.50;99.90
31819;DHT22;18384;48.860;9.188;2022-11-20T16:49:01;8.50;99.90
31819;DHT22;18384;48.860;9.188;2022-11-20T16:51:30;8.50;99.90
31819;DHT22;18384;48.860;9.188;2022-11-20T16:53:57;8.60;99.90
31819;DHT22;18384;48.860;9.188;2022-11-20T16:56:27;8.60;99.90
31819;DHT22;18384;48.860;9.188;2022-11-20T16:58:54;8.70;99.90
31819;DHT22;18384;48.860;9.188;2022-11-20T17:01:22;8.70;99.90
31819;DHT22;18384;48.860;9.188;2022-11-20T17:04:00;8.70;99.90
31819;DHT22;18384;48.860;9.188;2022-11-20T17:06:31;8.70;99.90
31819;DHT22;18384;48.860;9.188;2022-11-20T17:08:58;9.00;99.90
31819;DHT22;18384;48.860;9.188;2022-11-20T17:11:25;8.70;99.90
31819;DHT22;18384;48.860;9.188;2022-11-20T17:13:54;8.70;99.90
31819;DHT22;18384;48.860;9.188;2022-11-20T17:16:22;8.70;99.90
31819;DHT22;18384;48.860;9.188;2022-11-20T17:18:49;8.50;99.90
31819;DHT22;18384;48.860;9.188;2022-11-20T17:21:16;8.30;99.90
31819;DHT22;18384;48.860;9.188;2022-11-20T17:23:44;8.50;99.90
31819;DHT22;18384;48.860;9.188;2022-11-20T17:26:24;8.60;99.90
31819;DHT22;18384;48.860;9.188;2022-11-20T17:29:09;8.60;99.90
31819;DHT22;18384;48.860;9.188;2022-11-20T17:31:39;8.50;99.90